Time;durP1;ratioP1;P1;durP2;ratioP2;P2;SDS_P1;SDS_P2;PMS_P1;PMS_P2;Temp;Humidity;BMP_temperature;BMP_pressure;BME280_temperature;BME280_humidity;BME280_pressure;Samples;Min_cycle;Max_cycle;Signal;HPM_P1;HPM_P2
2021/08/11 00:00:15;;;;;;;3.95;2.10;;;17.20;70.20;;;;;;5109708;28;20031;-84
2021/08/11 00:02:40;;;;;;;2.45;1.75;;;17.10;71.10;;;;;;5113266;28;20031;-83
2021/08/11 00:05:06;;;;;;;2.83;2.10;;;17.10;71.50;;;;;;5095395;28;20027;-86
2021/08/11 00:07:32;;;;;;;2.92;2.20;;;17.10;71.90;;;;;;5114512;28;20016;-84
2021/08/11 00:09:58;;;;;;;3.72;2.00;;;17.10;72.00;;;;;;5095356;28;20380;-84
2021/08/11 00:12:23;;;;;;;3.78;2.28;;;17.10;71.40;;;;;;5112931;28;20488;-85
2021/08/11 00:14:49;;;;;;;5.97;2.58;;;17.00;72.90;;;;;;5113522;28;20139;-85
2021/08/11 00:17:15;;;;;;;3.72;2.20;;;17.00;72.20;;;;;;5094655;28;20130;-83
2021/08/11 00:19:40;;;;;;;3.72;2.13;;;17.10;72.70;;;;;;5113821;28;20089;-83
2021/08/11 00:22:06;;;;;;;5.25;2.67;;;17.10;72.70;;;;;;5095209;28;20440;-83
2021/08/11 00:24:32;;;;;;;3.97;2.33;;;17.10;72.60;;;;;;5094911;28;20488;-83
2021/08/11 00:26:57;;;;;;;3.42;2.20;;;17.00;72.80;;;;;;5094341;28;20119;-83
2021/08/11 00:29:23;;;;;;;5.20;2.30;;;17.00;73.20;;;;;;5113252;28;20019;-83
2021/08/11 00:31:49;;;;;;;3.88;2.38;;;17.00;72.70;;;;;;5095119;28;20020;-83
2021/08/11 00:34:15;;;;;;;4.43;2.53;;;16.90;72.50;;;;;;5095354;28;20036;-83
2021/08/11 00:36:41;;;;;;;3.88;2.42;;;16.90;72.80;;;;;;5094464;28;20031;-83
2021/08/11 00:39:06;;;;;;;3.83;2.70;;;16.80;72.50;;;;;;5094258;28;20042;-84
2021/08/11 00:41:32;;;;;;;5.13;2.10;;;16.80;73.40;;;;;;5093809;28;20055;-84
2021/08/11 00:43:57;;;;;;;3.58;2.10;;;16.80;74.10;;;;;;5094650;28;20498;-83
2021/08/11 00:46:23;;;;;;;5.88;2.20;;;16.80;74.60;;;;;;5113542;28;20096;-83
2021/08/11 00:48:49;;;;;;;3.83;2.58;;;16.80;74.20;;;;;;5094479;28;20049;-83
2021/08/11 00:51:15;;;;;;;4.47;2.35;;;16.70;74.50;;;;;;5112578;28;20484;-83
2021/08/11 00:53:41;;;;;;;4.97;2.45;;;16.60;75.20;;;;;;5111215;28;20036;-83
2021/08/11 00:56:08;;;;;;;4.22;2.67;;;16.60;74.60;;;;;;5112488;28;20063;-84
2021/08/11 00:58:35;;;;;;;5.35;2.35;;;16.50;74.50;;;;;;5113240;28;20051;-84
2021/08/11 01:01:02;;;;;;;4.00;2.05;;;16.50;73.90;;;;;;5112488;28;20067;-84
2021/08/11 01:03:29;;;;;;;3.83;2.45;;;16.50;75.10;;;;;;5094000;28;20027;-84
2021/08/11 01:05:59;;;;;;;4.18;2.45;;;16.50;74.40;;;;;;5112331;28;20024;-84
2021/08/11 01:08:27;;;;;;;3.70;2.47;;;16.50;75.10;;;;;;5111842;28;20019;-85
2021/08/11 01:10:52;;;;;;;4.80;2.70;;;16.40;75.10;;;;;;5094018;28;20467;-84
2021/08/11 01:13:19;;;;;;;3.47;2.33;;;16.30;76.30;;;;;;5112689;28;20536;-85
2021/08/11 01:15:48;;;;;;;4.68;2.40;;;16.40;76.10;;;;;;5111742;28;20043;-84
2021/08/11 01:18:15;;;;;;;3.58;2.42;;;16.40;76.10;;;;;;5093835;28;20439;-85
2021/08/11 01:20:58;;;;;;;6.72;2.42;;;16.40;75.90;;;;;;5093720;28;20023;-86
2021/08/11 01:23:29;;;;;;;4.57;2.47;;;16.40;75.40;;;;;;5098305;28;20023;-85
2021/08/11 01:26:04;;;;;;;6.10;2.90;;;16.50;76.30;;;;;;5094205;28;20115;-86
2021/08/11 01:28:58;;;;;;;4.75;2.70;;;16.40;75.30;;;;;;5111962;28;20012;-85
2021/08/11 01:31:40;;;;;;;4.30;3.17;;;16.30;76.00;;;;;;5111173;28;20428;-85
2021/08/11 01:34:29;;;;;;;4.25;2.70;;;16.20;75.80;;;;;;5094155;28;20079;-85
2021/08/11 01:37:01;;;;;;;3.70;3.08;;;16.10;75.60;;;;;;5111416;28;20112;-84
2021/08/11 01:39:42;;;;;;;5.28;2.80;;;16.10;75.80;;;;;;5111588;28;20039;-83
2021/08/11 01:42:13;;;;;;;4.78;2.33;;;16.00;76.30;;;;;;5112089;28;20027;-83
2021/08/11 01:44:43;;;;;;;6.35;3.17;;;16.00;77.30;;;;;;5112143;28;20020;-83
2021/08/11 01:47:14;;;;;;;5.35;2.85;;;15.90;76.30;;;;;;5095905;28;20030;-83
2021/08/11 01:49:45;;;;;;;4.47;2.65;;;15.90;76.60;;;;;;5090566;28;20122;-83
2021/08/11 01:52:12;;;;;;;5.57;2.80;;;15.80;76.60;;;;;;5094022;28;20468;-83
2021/08/11 01:54:39;;;;;;;5.60;2.70;;;15.90;77.40;;;;;;5093049;28;20039;-83
2021/08/11 01:57:06;;;;;;;4.18;2.55;;;16.00;77.20;;;;;;5093247;28;20049;-83
2021/08/11 01:59:32;;;;;;;5.43;2.53;;;16.00;76.50;;;;;;5112011;28;20031;-83
2021/08/11 02:01:57;;;;;;;3.70;2.78;;;16.00;76.50;;;;;;5112068;28;20032;-82
2021/08/11 02:04:24;;;;;;;4.57;2.50;;;16.00;76.80;;;;;;5094183;28;20020;-83
2021/08/11 02:06:50;;;;;;;4.78;2.90;;;15.90;76.00;;;;;;5111922;28;20114;-85
2021/08/11 02:09:18;;;;;;;5.93;2.47;;;15.90;76.30;;;;;;5111457;28;20027;-85
2021/08/11 02:11:44;;;;;;;4.38;2.72;;;15.90;76.70;;;;;;5093172;28;20032;-84
2021/08/11 02:14:11;;;;;;;3.63;2.42;;;16.00;78.40;;;;;;5112045;28;20427;-85
2021/08/11 02:16:41;;;;;;;3.28;2.40;;;16.00;77.00;;;;;;5098305;27;20043;-85
2021/08/11 02:19:09;;;;;;;4.10;2.30;;;15.90;76.50;;;;;;5095588;28;20028;-85
2021/08/11 02:21:35;;;;;;;3.85;2.50;;;16.00;76.70;;;;;;5096852;28;20433;-85
2021/08/11 02:24:02;;;;;;;2.97;2.40;;;15.90;76.90;;;;;;5097064;28;20027;-85
2021/08/11 02:26:42;;;;;;;3.75;2.38;;;15.90;77.20;;;;;;5115841;28;20020;-84
2021/08/11 02:29:15;;;;;;;3.83;2.33;;;15.80;76.60;;;;;;5097048;28;20027;-84
2021/08/11 02:31:51;;;;;;;4.35;2.75;;;15.70;76.60;;;;;;5111798;28;20081;-83
2021/08/11 02:34:43;;;;;;;3.90;2.65;;;15.60;76.30;;;;;;5097771;28;20039;-84
2021/08/11 02:37:18;;;;;;;5.22;2.60;;;15.60;76.30;;;;;;5028084;28;20041;-84
2021/08/11 02:39:50;;;;;;;4.25;2.38;;;15.50;76.50;;;;;;5015914;28;20493;-84
2021/08/11 02:42:37;;;;;;;4.97;2.60;;;15.50;77.30;;;;;;5015675;28;20120;-83
2021/08/11 02:45:04;;;;;;;5.30;2.40;;;15.50;76.70;;;;;;5028006;28;20505;-83
2021/08/11 02:47:35;;;;;;;3.95;2.60;;;15.50;77.90;;;;;;5032558;28;20034;-83
2021/08/11 02:50:01;;;;;;;3.90;2.70;;;15.40;77.30;;;;;;5032642;28;20040;-83
2021/08/11 02:52:28;;;;;;;4.60;3.10;;;15.50;76.80;;;;;;5032668;28;20025;-83
2021/08/11 02:54:55;;;;;;;5.22;2.70;;;15.40;77.40;;;;;;5032223;28;20068;-84
2021/08/11 02:57:22;;;;;;;4.15;2.58;;;15.40;76.80;;;;;;5027842;28;20037;-83
2021/08/11 02:59:48;;;;;;;3.20;2.50;;;15.30;77.60;;;;;;5032210;28;20025;-83
2021/08/11 03:02:14;;;;;;;4.32;2.67;;;15.30;77.30;;;;;;5031891;28;20058;-83
2021/08/11 03:04:41;;;;;;;3.72;2.47;;;15.30;77.70;;;;;;5032505;28;20072;-83
2021/08/11 03:07:07;;;;;;;3.83;2.50;;;15.30;77.80;;;;;;5027555;28;20115;-83
2021/08/11 03:09:34;;;;;;;5.18;2.53;;;15.20;77.60;;;;;;5032247;28;20075;-82
2021/08/11 03:12:01;;;;;;;3.90;2.60;;;15.20;77.40;;;;;;5027783;28;20038;-86
2021/08/11 03:14:26;;;;;;;3.78;2.80;;;15.10;78.30;;;;;;5078657;28;20043;-85
2021/08/11 03:16:52;;;;;;;5.63;3.05;;;15.10;77.70;;;;;;5096506;28;20056;-85
2021/08/11 03:19:18;;;;;;;3.38;2.67;;;15.10;78.60;;;;;;5115103;28;20395;-85
2021/08/11 03:21:44;;;;;;;3.70;2.83;;;15.10;77.90;;;;;;5095747;28;20050;-88
2021/08/11 03:24:09;;;;;;;5.20;2.95;;;15.10;78.10;;;;;;5114689;28;20114;-88
2021/08/11 03:26:35;;;;;;;4.28;2.42;;;15.10;77.10;;;;;;5114661;28;20499;-89
2021/08/11 03:29:01;;;;;;;3.00;2.35;;;15.20;78.40;;;;;;5096336;28;20023;-88
2021/08/11 03:31:28;;;;;;;6.25;2.92;;;15.10;78.20;;;;;;5114090;28;20093;-87
2021/08/11 03:33:54;;;;;;;5.03;2.85;;;15.10;78.90;;;;;;5095692;28;20035;-87
2021/08/11 03:36:20;;;;;;;5.35;3.03;;;15.20;78.60;;;;;;5095941;28;20028;-87
2021/08/11 03:38:46;;;;;;;3.15;2.22;;;15.10;78.30;;;;;;5114107;28;20567;-87
2021/08/11 03:41:11;;;;;;;3.97;2.53;;;15.00;78.80;;;;;;5095627;28;20032;-87
2021/08/11 03:43:37;;;;;;;3.90;2.60;;;15.00;78.70;;;;;;5114995;28;20498;-86
2021/08/11 03:46:02;;;;;;;4.25;2.70;;;15.10;79.70;;;;;;5114130;28;20028;-86
2021/08/11 03:48:28;;;;;;;2.95;2.15;;;15.00;78.90;;;;;;5095095;28;20070;-84
2021/08/11 03:50:54;;;;;;;3.50;2.75;;;15.00;78.40;;;;;;5095275;28;20126;-82
2021/08/11 03:53:19;;;;;;;4.18;2.72;;;15.00;79.40;;;;;;5113924;28;20040;-82
2021/08/11 03:55:45;;;;;;;5.25;2.92;;;15.10;79.70;;;;;;5114315;28;20016;-82
2021/08/11 03:58:10;;;;;;;4.68;2.90;;;15.30;80.00;;;;;;5114232;28;20114;-82
2021/08/11 04:00:36;;;;;;;3.78;2.67;;;15.30;79.20;;;;;;5095162;28;20165;-82
2021/08/11 04:03:02;;;;;;;4.05;2.70;;;15.20;78.00;;;;;;5112630;28;20527;-82
2021/08/11 04:05:28;;;;;;;3.58;2.50;;;15.10;78.30;;;;;;5113193;28;20024;-82
2021/08/11 04:07:53;;;;;;;5.22;2.53;;;15.00;78.20;;;;;;5113310;28;20310;-82
2021/08/11 04:10:19;;;;;;;3.58;2.63;;;14.90;78.40;;;;;;5111621;28;20027;-83
2021/08/11 04:12:44;;;;;;;3.40;2.63;;;14.90;78.70;;;;;;5112462;28;20039;-83
2021/08/11 04:15:11;;;;;;;5.32;2.67;;;14.80;79.40;;;;;;5094925;28;20040;-84
2021/08/11 04:17:36;;;;;;;3.58;2.50;;;14.80;79.30;;;;;;5094278;28;20035;-82
2021/08/11 04:20:04;;;;;;;3.47;3.08;;;14.90;80.10;;;;;;5095392;28;20088;-85
2021/08/11 04:22:30;;;;;;;5.82;3.08;;;15.00;80.40;;;;;;5114006;28;20441;-82
2021/08/11 04:24:56;;;;;;;4.03;3.50;;;14.90;79.60;;;;;;5094561;28;20023;-86
2021/08/11 04:27:21;;;;;;;4.30;3.10;;;14.90;79.90;;;;;;5094605;28;20059;-89
2021/08/11 04:29:47;;;;;;;4.95;3.58;;;14.90;80.50;;;;;;5094761;28;20042;-87
2021/08/11 04:32:13;;;;;;;4.93;3.13;;;14.90;80.70;;;;;;5094382;28;20570;-85
2021/08/11 04:34:38;;;;;;;4.13;3.20;;;14.90;80.00;;;;;;5113744;28;20106;-85
2021/08/11 04:37:06;;;;;;;4.25;3.25;;;14.90;79.80;;;;;;5113104;28;20028;-86
2021/08/11 04:39:32;;;;;;;3.90;3.08;;;14.80;79.50;;;;;;5113050;28;20059;-84
2021/08/11 04:41:58;;;;;;;4.45;3.00;;;14.80;79.80;;;;;;5094033;28;20028;-84
2021/08/11 04:44:23;;;;;;;3.60;3.10;;;14.70;80.00;;;;;;5113018;28;20131;-84
2021/08/11 04:46:49;;;;;;;4.68;3.13;;;14.70;79.80;;;;;;5113968;28;20069;-87
2021/08/11 04:49:15;;;;;;;4.32;2.80;;;14.70;80.30;;;;;;5095519;28;20492;-87
2021/08/11 04:51:40;;;;;;;5.05;3.15;;;14.70;80.10;;;;;;5113040;28;20023;-88
2021/08/11 04:54:06;;;;;;;3.72;3.13;;;14.70;79.50;;;;;;5098085;28;20499;-87
2021/08/11 04:56:32;;;;;;;5.05;3.15;;;14.60;80.20;;;;;;5115133;28;20034;-87
2021/08/11 04:58:57;;;;;;;4.38;2.92;;;14.60;81.60;;;;;;5112787;28;20500;-84
2021/08/11 05:01:23;;;;;;;3.95;3.28;;;14.60;82.50;;;;;;5094606;28;20507;-84
2021/08/11 05:03:49;;;;;;;3.17;2.63;;;14.70;80.80;;;;;;5112603;28;20028;-84
2021/08/11 05:06:14;;;;;;;5.90;3.63;;;14.80;82.40;;;;;;5094030;28;20028;-84
2021/08/11 05:08:40;;;;;;;3.85;3.15;;;14.80;81.30;;;;;;5093994;28;20483;-84
2021/08/11 05:11:06;;;;;;;3.90;3.30;;;14.80;80.70;;;;;;5115655;28;20077;-84
2021/08/11 05:13:32;;;;;;;5.57;3.15;;;14.80;80.80;;;;;;5096471;28;20457;-86
2021/08/11 05:15:58;;;;;;;4.53;3.28;;;14.90;80.50;;;;;;5094502;28;20047;-85
2021/08/11 05:18:24;;;;;;;4.70;3.10;;;14.80;80.30;;;;;;5095358;28;20031;-84
2021/08/11 05:20:50;;;;;;;5.82;3.08;;;14.80;80.30;;;;;;5113506;28;20027;-84
2021/08/11 05:23:16;;;;;;;4.28;2.85;;;14.70;80.50;;;;;;5094072;28;20403;-84
2021/08/11 05:25:42;;;;;;;3.67;2.40;;;14.70;80.60;;;;;;5095462;28;20031;-84
2021/08/11 05:28:08;;;;;;;2.85;2.60;;;14.70;81.30;;;;;;5095833;28;20027;-84
2021/08/11 05:30:35;;;;;;;3.97;2.80;;;14.70;80.70;;;;;;5113053;28;20031;-84
2021/08/11 05:33:01;;;;;;;4.15;2.30;;;14.70;80.60;;;;;;5113222;28;20027;-84
2021/08/11 05:35:26;;;;;;;3.78;2.80;;;14.70;81.20;;;;;;5113188;28;20028;-83
2021/08/11 05:37:52;;;;;;;4.68;2.58;;;14.80;80.90;;;;;;5096582;28;20513;-85
2021/08/11 05:40:18;;;;;;;5.22;2.63;;;14.80;81.00;;;;;;5113834;28;20022;-85
2021/08/11 05:42:44;;;;;;;4.50;2.90;;;14.80;81.30;;;;;;5095546;28;20020;-85
2021/08/11 05:45:10;;;;;;;3.42;2.95;;;14.90;80.70;;;;;;5114891;28;20039;-85
2021/08/11 05:47:36;;;;;;;4.05;2.55;;;14.90;80.50;;;;;;5114949;28;20016;-85
2021/08/11 05:50:06;;;;;;;3.80;2.60;;;14.90;80.50;;;;;;5097191;28;20055;-87
2021/08/11 05:52:31;;;;;;;5.38;2.60;;;14.90;80.80;;;;;;5113292;28;20066;-88
2021/08/11 05:54:57;;;;;;;3.65;2.63;;;15.00;81.30;;;;;;5116764;28;20067;-88
2021/08/11 05:57:23;;;;;;;3.58;2.85;;;15.00;81.50;;;;;;5116573;28;20037;-88
2021/08/11 05:59:49;;;;;;;3.92;2.40;;;15.20;82.20;;;;;;5097501;28;20114;-86
2021/08/11 06:02:15;;;;;;;3.10;2.40;;;15.30;81.70;;;;;;5098226;28;20032;-86
2021/08/11 06:04:41;;;;;;;2.90;2.20;;;15.30;81.50;;;;;;5116924;28;20034;-86
2021/08/11 06:07:06;;;;;;;2.95;2.30;;;15.30;81.00;;;;;;5116949;28;20084;-87
2021/08/11 06:09:32;;;;;;;4.07;2.10;;;15.30;81.70;;;;;;5098692;28;20056;-86
2021/08/11 06:11:58;;;;;;;2.42;1.90;;;15.30;82.00;;;;;;5116987;28;20020;-86
2021/08/11 06:14:24;;;;;;;2.60;2.00;;;15.30;82.30;;;;;;5098504;28;20027;-86
2021/08/11 06:16:50;;;;;;;2.95;2.28;;;15.30;82.60;;;;;;5115892;28;20563;-88
2021/08/11 06:19:15;;;;;;;2.53;2.00;;;15.40;82.40;;;;;;5097625;28;20024;-86
2021/08/11 06:21:41;;;;;;;3.38;2.28;;;15.50;82.20;;;;;;5115979;28;20035;-87
2021/08/11 06:24:06;;;;;;;2.78;2.53;;;15.50;82.50;;;;;;5115703;28;20027;-87
2021/08/11 06:26:34;;;;;;;3.90;2.45;;;15.50;82.70;;;;;;5097369;28;20023;-88
2021/08/11 06:28:59;;;;;;;3.20;2.83;;;15.50;82.80;;;;;;5115368;28;20031;-86
2021/08/11 06:31:26;;;;;;;3.45;2.38;;;15.40;82.90;;;;;;5097211;28;20026;-86
2021/08/11 06:33:52;;;;;;;3.63;2.78;;;15.50;82.90;;;;;;5115333;28;20041;-87
2021/08/11 06:36:18;;;;;;;2.92;2.17;;;15.60;82.90;;;;;;5114198;28;20016;-86
2021/08/11 06:38:44;;;;;;;3.78;2.58;;;15.70;83.30;;;;;;5113277;28;20036;-86
2021/08/11 06:41:15;;;;;;;3.15;2.17;;;15.90;83.00;;;;;;5115570;28;20012;-87
2021/08/11 06:43:41;;;;;;;2.78;2.50;;;15.90;82.70;;;;;;5115473;28;20055;-84
2021/08/11 06:46:07;;;;;;;3.45;2.47;;;15.90;82.40;;;;;;5115497;28;20070;-84
2021/08/11 06:48:34;;;;;;;2.50;2.22;;;15.90;83.00;;;;;;5114562;28;20027;-83
2021/08/11 06:51:00;;;;;;;4.18;2.20;;;16.00;82.60;;;;;;5115212;28;20027;-87
2021/08/11 06:53:25;;;;;;;4.20;2.40;;;15.90;82.80;;;;;;5096981;28;20036;-87
2021/08/11 06:55:51;;;;;;;2.90;2.20;;;15.90;82.70;;;;;;5115348;28;20019;-87
2021/08/11 06:58:16;;;;;;;4.90;2.35;;;16.00;83.00;;;;;;5097002;28;20023;-87
2021/08/11 07:00:42;;;;;;;3.85;2.55;;;16.10;83.00;;;;;;5096817;28;20020;-87
2021/08/11 07:03:07;;;;;;;3.60;2.25;;;16.20;82.30;;;;;;5096695;28;20047;-87
2021/08/11 07:05:33;;;;;;;3.60;2.45;;;16.20;82.50;;;;;;5095793;28;20092;-87
2021/08/11 07:07:59;;;;;;;2.95;2.15;;;16.30;82.90;;;;;;5097441;28;20027;-86
2021/08/11 07:10:24;;;;;;;4.70;2.50;;;16.40;82.30;;;;;;5115251;28;20036;-86
2021/08/11 07:12:50;;;;;;;3.42;1.98;;;16.40;82.20;;;;;;5111692;28;20036;-85
2021/08/11 07:15:16;;;;;;;3.65;2.00;;;16.50;82.20;;;;;;5094585;28;20039;-83
2021/08/11 07:17:53;;;;;;;3.38;1.92;;;16.60;82.40;;;;;;5114462;28;20157;-85
2021/08/11 07:20:18;;;;;;;4.53;2.20;;;16.80;82.40;;;;;;5081401;28;20103;-84
2021/08/11 07:22:44;;;;;;;4.35;2.25;;;16.80;81.90;;;;;;5114902;28;20583;-86
2021/08/11 07:25:10;;;;;;;4.43;2.30;;;16.90;81.90;;;;;;5114579;28;20026;-86
2021/08/11 07:27:36;;;;;;;5.15;2.20;;;16.90;81.60;;;;;;5113812;28;20407;-86
2021/08/11 07:30:04;;;;;;;4.82;2.05;;;16.80;81.70;;;;;;5095356;28;20031;-86
2021/08/11 07:32:30;;;;;;;3.03;2.13;;;16.80;81.80;;;;;;5120276;27;20106;-86
2021/08/11 07:34:55;;;;;;;2.90;2.30;;;16.90;82.10;;;;;;5115893;27;20130;-84
2021/08/11 07:37:21;;;;;;;3.58;2.45;;;17.00;82.20;;;;;;5117835;27;20023;-86
2021/08/11 07:39:46;;;;;;;4.07;2.10;;;17.00;81.90;;;;;;5111331;27;20024;-82
2021/08/11 07:42:12;;;;;;;2.80;2.30;;;17.10;81.80;;;;;;5095825;28;20585;-83
2021/08/11 07:44:38;;;;;;;2.55;1.70;;;17.20;81.30;;;;;;5113851;28;20031;-84
2021/08/11 07:47:04;;;;;;;2.65;1.92;;;17.20;81.30;;;;;;5114470;28;20476;-83
2021/08/11 07:49:31;;;;;;;3.75;2.33;;;17.30;81.30;;;;;;5110609;28;20059;-83
2021/08/11 07:51:57;;;;;;;2.72;2.10;;;17.30;80.80;;;;;;5079806;28;20059;-85
2021/08/11 07:54:22;;;;;;;3.53;2.10;;;17.40;80.60;;;;;;5109039;27;20562;-85
2021/08/11 07:56:48;;;;;;;3.53;1.90;;;17.50;80.50;;;;;;5113762;28;20027;-83
2021/08/11 07:59:14;;;;;;;4.25;2.30;;;17.60;80.60;;;;;;5114046;28;20492;-84
2021/08/11 08:01:39;;;;;;;4.57;2.10;;;17.60;81.40;;;;;;5112980;28;20097;-84
2021/08/11 08:04:05;;;;;;;3.05;2.10;;;17.70;79.90;;;;;;5113644;28;20031;-89
2021/08/11 08:06:30;;;;;;;3.55;2.03;;;17.80;80.10;;;;;;5114658;28;20024;-77
2021/08/11 08:08:56;;;;;;;3.25;1.98;;;17.80;79.70;;;;;;5113594;28;20053;-78
2021/08/11 08:11:22;;;;;;;4.82;1.98;;;17.90;79.60;;;;;;5112849;28;20028;-78
2021/08/11 08:13:48;;;;;;;2.25;1.80;;;18.00;79.80;;;;;;5113521;28;20407;-78
2021/08/11 08:16:15;;;;;;;2.50;1.70;;;18.00;80.50;;;;;;5129086;27;20058;-78
2021/08/11 08:18:40;;;;;;;3.55;1.73;;;18.10;79.50;;;;;;5112729;28;20046;-78
2021/08/11 08:21:06;;;;;;;2.22;1.77;;;18.10;79.10;;;;;;5112514;28;20019;-78
2021/08/11 08:23:32;;;;;;;2.20;1.60;;;18.10;79.30;;;;;;5117857;27;20023;-78
2021/08/11 08:25:58;;;;;;;2.83;1.80;;;18.20;79.20;;;;;;5112620;28;20062;-79
2021/08/11 08:28:23;;;;;;;3.33;1.73;;;18.30;79.00;;;;;;5113503;28;20038;-79
2021/08/11 08:30:49;;;;;;;3.28;1.67;;;18.40;79.70;;;;;;5112799;28;20031;-77
2021/08/11 08:33:15;;;;;;;4.43;1.83;;;18.40;77.90;;;;;;5113002;28;20044;-78
2021/08/11 08:35:41;;;;;;;3.13;1.52;;;18.40;77.50;;;;;;5112773;28;20031;-80
2021/08/11 08:38:07;;;;;;;4.13;2.03;;;18.40;77.60;;;;;;5112040;28;20028;-79
2021/08/11 08:40:36;;;;;;;2.47;1.77;;;18.40;76.50;;;;;;5112707;28;20024;-79
2021/08/11 08:43:03;;;;;;;3.08;1.70;;;18.40;77.10;;;;;;5113074;28;20039;-80
2021/08/11 08:45:29;;;;;;;3.05;1.85;;;18.40;77.30;;;;;;5093587;28;20024;-78
2021/08/11 08:47:55;;;;;;;3.55;1.83;;;18.50;77.20;;;;;;5113915;28;20368;-78
2021/08/11 08:50:21;;;;;;;3.45;2.10;;;18.50;77.30;;;;;;5095445;28;20058;-79
2021/08/11 08:52:49;;;;;;;4.07;2.15;;;18.50;77.40;;;;;;5095765;28;20475;-79
2021/08/11 08:55:17;;;;;;;4.18;1.90;;;18.50;77.20;;;;;;5113009;27;20036;-80
2021/08/11 08:57:43;;;;;;;3.92;2.03;;;18.50;77.10;;;;;;5110892;28;20024;-79
2021/08/11 09:00:10;;;;;;;3.03;2.00;;;18.60;78.10;;;;;;5112257;28;20064;-80
2021/08/11 09:02:38;;;;;;;2.63;1.80;;;18.60;77.10;;;;;;5109370;27;20016;-79
2021/08/11 09:05:06;;;;;;;3.33;2.47;;;18.60;78.00;;;;;;5112562;27;20023;-81
2021/08/11 09:07:31;;;;;;;3.75;2.40;;;18.60;76.70;;;;;;5111820;28;20035;-80
2021/08/11 09:09:57;;;;;;;2.92;2.28;;;18.60;76.70;;;;;;5110332;28;20506;-83
2021/08/11 09:12:23;;;;;;;2.88;2.13;;;18.70;77.20;;;;;;5094385;28;20076;-80
2021/08/11 09:14:51;;;;;;;2.60;2.00;;;18.80;77.30;;;;;;5112640;28;20084;-80
2021/08/11 09:17:32;;;;;;;3.22;2.13;;;18.80;77.30;;;;;;5093252;28;20138;-78
2021/08/11 09:19:57;;;;;;;3.63;2.10;;;18.90;77.00;;;;;;5110686;28;20024;-79
2021/08/11 09:22:23;;;;;;;5.45;2.38;;;18.90;77.70;;;;;;5111874;28;20035;-79
2021/08/11 09:25:06;;;;;;;4.30;2.78;;;19.00;76.90;;;;;;5094850;28;20030;-78
2021/08/11 09:27:38;;;;;;;4.40;2.38;;;19.00;76.80;;;;;;5107302;28;20502;-78
2021/08/11 09:30:16;;;;;;;4.10;2.00;;;19.10;76.60;;;;;;5110913;27;20035;-78
2021/08/11 09:33:05;;;;;;;3.42;2.28;;;19.10;76.70;;;;;;5092324;28;20035;-79
2021/08/11 09:35:32;;;;;;;2.60;2.08;;;19.20;77.00;;;;;;5090727;28;20031;-80
2021/08/11 09:38:06;;;;;;;3.83;2.40;;;19.20;76.90;;;;;;5104282;28;20023;-81
2021/08/11 09:40:34;;;;;;;3.25;2.40;;;19.30;76.20;;;;;;5110959;28;20028;-81
2021/08/11 09:43:01;;;;;;;4.85;2.83;;;19.30;76.30;;;;;;5111401;28;20050;-79
2021/08/11 09:45:40;;;;;;;4.00;2.53;;;19.40;76.10;;;;;;5111157;28;20454;-80
2021/08/11 09:48:06;;;;;;;3.80;2.30;;;19.50;76.60;;;;;;5111093;28;20380;-81
2021/08/11 09:50:39;;;;;;;3.65;2.40;;;19.60;76.90;;;;;;5092814;28;20042;-80
2021/08/11 09:53:07;;;;;;;4.40;2.53;;;19.70;76.40;;;;;;5110345;28;20046;-80
2021/08/11 09:56:01;;;;;;;3.78;2.70;;;19.80;76.30;;;;;;5111302;28;20502;-80
2021/08/11 09:58:48;;;;;;;3.42;2.60;;;19.90;76.50;;;;;;5108879;28;20031;-80
2021/08/11 10:01:14;;;;;;;4.63;3.17;;;20.00;75.50;;;;;;5096374;28;20055;-80
2021/08/11 10:03:59;;;;;;;3.45;2.78;;;19.90;75.00;;;;;;5115661;28;20487;-80
2021/08/11 10:06:39;;;;;;;5.22;2.70;;;19.90;75.70;;;;;;5109305;28;20024;-80
2021/08/11 10:09:21;;;;;;;3.15;2.50;;;20.00;76.30;;;;;;5084709;28;20035;-81
2021/08/11 10:11:57;;;;;;;3.55;2.42;;;20.20;76.40;;;;;;5111358;28;20039;-83
2021/08/11 10:14:28;;;;;;;3.50;2.53;;;20.30;75.80;;;;;;5094788;28;20035;-81
2021/08/11 10:16:58;;;;;;;5.25;2.97;;;20.50;75.60;;;;;;5110924;28;20113;-81
2021/08/11 10:19:27;;;;;;;3.47;2.42;;;20.50;74.40;;;;;;5111175;28;20507;-80
2021/08/11 10:21:56;;;;;;;4.20;2.30;;;20.60;74.70;;;;;;5110466;28;20073;-79
2021/08/11 10:24:22;;;;;;;4.93;2.80;;;20.70;74.60;;;;;;5101690;28;20036;-79
2021/08/11 10:26:52;;;;;;;4.72;2.30;;;20.80;74.30;;;;;;5118799;27;20027;-82
2021/08/11 10:29:21;;;;;;;4.03;2.22;;;20.80;73.80;;;;;;5111148;28;20019;-84
2021/08/11 10:31:47;;;;;;;3.75;2.35;;;20.90;74.20;;;;;;5111084;28;20026;-78
2021/08/11 10:34:15;;;;;;;3.40;2.20;;;21.10;74.30;;;;;;5110219;28;20059;-81
2021/08/11 10:36:43;;;;;;;3.42;2.15;;;21.20;74.00;;;;;;5109706;28;20024;-81
2021/08/11 10:39:09;;;;;;;4.38;2.20;;;21.30;73.60;;;;;;5109967;28;20028;-80
2021/08/11 10:41:36;;;;;;;3.28;2.10;;;21.50;73.80;;;;;;5114268;28;20012;-80
2021/08/11 10:44:05;;;;;;;3.10;2.20;;;21.60;72.00;;;;;;5118920;27;20039;-79
2021/08/11 10:46:37;;;;;;;3.15;2.15;;;21.70;70.80;;;;;;5114381;28;20114;-83
2021/08/11 10:49:07;;;;;;;3.13;2.22;;;21.80;71.30;;;;;;5111696;28;20076;-82
2021/08/11 10:51:41;;;;;;;3.00;2.17;;;21.90;71.90;;;;;;5095182;28;20073;-81
2021/08/11 10:54:08;;;;;;;3.80;2.35;;;22.10;72.00;;;;;;5096209;28;20042;-82
2021/08/11 10:56:55;;;;;;;4.32;2.40;;;22.10;71.00;;;;;;5096320;28;20028;-81
2021/08/11 10:59:24;;;;;;;3.38;2.20;;;22.20;71.80;;;;;;5099711;28;20035;-81
2021/08/11 11:01:51;;;;;;;3.47;2.30;;;22.20;68.00;;;;;;5079723;28;20016;-81
2021/08/11 11:04:43;;;;;;;3.40;2.45;;;22.20;70.30;;;;;;5114214;28;20059;-80
2021/08/11 11:07:12;;;;;;;3.90;2.40;;;22.10;69.00;;;;;;5096075;28;20034;-81
2021/08/11 11:09:39;;;;;;;3.25;2.38;;;22.20;68.80;;;;;;5114482;28;20112;-81
2021/08/11 11:12:17;;;;;;;5.68;2.40;;;22.30;69.40;;;;;;5091593;28;20031;-81
2021/08/11 11:15:00;;;;;;;3.85;2.25;;;22.50;70.70;;;;;;5129856;27;20031;-81
2021/08/11 11:17:36;;;;;;;3.53;2.50;;;22.70;69.90;;;;;;5117209;27;20043;-81
2021/08/11 11:20:05;;;;;;;3.90;2.30;;;22.70;67.40;;;;;;5095620;28;20032;-82
2021/08/11 11:22:48;;;;;;;3.40;2.40;;;22.70;67.90;;;;;;5111192;28;20080;-82
2021/08/11 11:25:14;;;;;;;3.15;2.00;;;22.70;68.30;;;;;;5113687;28;20072;-81
2021/08/11 11:27:53;;;;;;;4.97;2.58;;;22.80;68.20;;;;;;5114315;28;20023;-81
2021/08/11 11:30:27;;;;;;;2.38;2.17;;;22.80;66.20;;;;;;5114133;28;20035;-82
2021/08/11 11:33:19;;;;;;;2.90;2.40;;;22.70;67.70;;;;;;5090762;28;20392;-81
2021/08/11 11:35:45;;;;;;;2.95;2.10;;;22.80;67.20;;;;;;5102676;28;20480;-82
2021/08/11 11:38:14;;;;;;;6.53;2.65;;;22.90;67.10;;;;;;5095735;28;20114;-81
2021/08/11 11:40:55;;;;;;;4.78;2.83;;;23.10;66.50;;;;;;5096219;28;20522;-81
2021/08/11 11:43:29;;;;;;;3.47;2.53;;;23.30;67.90;;;;;;5113689;28;20504;-80
2021/08/11 11:45:55;;;;;;;4.40;2.40;;;23.50;66.20;;;;;;5096355;28;20027;-82
2021/08/11 11:48:22;;;;;;;3.53;2.20;;;23.60;66.40;;;;;;5113664;28;20019;-82
2021/08/11 11:50:50;;;;;;;2.97;2.30;;;23.70;65.40;;;;;;5113317;28;20063;-83
2021/08/11 11:53:24;;;;;;;4.22;2.40;;;23.70;65.50;;;;;;5113509;28;20757;-82
2021/08/11 11:55:51;;;;;;;6.10;3.10;;;23.80;66.20;;;;;;5113321;28;20043;-82
2021/08/11 11:58:19;;;;;;;3.65;2.70;;;23.90;66.50;;;;;;5112490;27;20028;-82
2021/08/11 12:00:47;;;;;;;5.22;2.90;;;24.00;65.60;;;;;;5111990;27;20028;-82
2021/08/11 12:03:15;;;;;;;3.88;2.80;;;23.80;63.70;;;;;;5110639;28;20129;-81
2021/08/11 12:05:50;;;;;;;4.28;2.83;;;23.80;64.50;;;;;;5114075;28;20131;-82
2021/08/11 12:08:17;;;;;;;3.28;2.90;;;23.80;65.40;;;;;;5098358;28;20012;-81
2021/08/11 12:10:45;;;;;;;4.13;3.25;;;23.90;64.00;;;;;;5095662;28;20034;-81
2021/08/11 12:13:11;;;;;;;4.40;3.00;;;23.80;64.50;;;;;;5095962;28;20019;-82
2021/08/11 12:15:39;;;;;;;4.90;3.17;;;23.80;63.90;;;;;;5095293;28;20059;-81
2021/08/11 12:18:21;;;;;;;4.05;2.80;;;23.80;63.90;;;;;;5090377;28;20020;-81
2021/08/11 12:20:48;;;;;;;4.18;3.03;;;23.80;64.70;;;;;;5113170;28;20019;-81
2021/08/11 12:23:22;;;;;;;3.50;2.75;;;23.80;63.90;;;;;;5095223;28;20023;-82
2021/08/11 12:25:50;;;;;;;3.60;3.00;;;23.90;63.60;;;;;;5095095;28;20024;-82
2021/08/11 12:28:20;;;;;;;4.45;2.83;;;23.90;63.40;;;;;;5114123;28;20027;-81
2021/08/11 12:31:08;;;;;;;3.67;2.53;;;23.90;64.00;;;;;;5113217;28;20031;-82
2021/08/11 12:33:37;;;;;;;5.85;3.55;;;24.10;64.80;;;;;;5100660;28;20043;-82
2021/08/11 12:36:08;;;;;;;4.47;2.85;;;24.10;63.40;;;;;;5113160;28;20487;-81
2021/08/11 12:38:38;;;;;;;3.95;2.83;;;24.10;62.20;;;;;;5112097;28;20023;-86
2021/08/11 12:41:19;;;;;;;3.65;2.80;;;24.10;63.20;;;;;;5093350;28;20051;-85
2021/08/11 12:43:51;;;;;;;4.15;2.97;;;24.10;62.70;;;;;;5108143;28;20491;-85
2021/08/11 12:46:17;;;;;;;5.90;3.50;;;24.00;60.80;;;;;;5110969;28;20028;-80
2021/08/11 12:48:43;;;;;;;5.65;3.42;;;23.90;61.30;;;;;;5111097;28;20058;-82
2021/08/11 12:51:24;;;;;;;6.40;3.58;;;23.90;62.40;;;;;;5111876;28;20019;-81
2021/08/11 12:54:07;;;;;;;4.93;3.60;;;24.00;63.70;;;;;;5112312;28;20046;-80